• Join FlightAware (Why Join?)
  • Login
  • US Flag 
12:41PM EDT


 

Airport Tracker/Info


-or-


 

Live Flight TrackerFlight Track Log ✈ UAL3821 ✈ 19-Jun-2013 ✈ KEWR - CYOW

Flight Track Log - Related Links

Times and Time Zones

All times are in EDT time to prevent confusion due to time zone crossing. See the UAL3821 flight status page for this flight to view local times or setup timezone preferences in your user account.

Time Position Orientation Groundspeed Altitude Reporting Facility
EDT Latitude Longitude Course Direction KTS MPH feet Rate Location/Type
11:21PM 40.6333 -74.1833 37° Northeast 189 217 2,400  Level New York TRACON
11:22PM 40.6667 -74.2333 311° West 253 291 4,300 1,980 Climbing New York TRACON
11:24PM 40.9929 -73.8238 37° Northeast  Level FlightAware Approximate
11:24PM 40.7372 -74.1247 49° Northeast 269 310 8,100  Level Boston Center
11:25PM 41.0731 -73.7346 40° Northeast  Level FlightAware Approximate
11:25PM 40.7847 -74.0161 60° Northeast 274 315 10,400  Level Boston Center
11:26PM 41.1562 -73.6514 27° Northeast  Level FlightAware Approximate
11:26PM 40.8339 -73.9103 58° Northeast 299 344 11,400  Level Boston Center
11:27PM 41.2305 -73.5695 37° Northeast  Level FlightAware Approximate
11:27PM 40.8897 -73.7964 57° Northeast 335 386 12,000  Level Boston Center
11:28PM 40.9411 -73.6792 60° Northeast 357 411 12,100 600 Climbing Boston Center
11:29PM 41.0128 -73.6036 38° Northeast 363 418 13,200 1,200 Climbing Boston Center
11:30PM 41.1197 -73.5394 24° Northeast 363 418 14,500 1,200 Climbing Boston Center
11:31PM 41.2203 -73.4806 24° Northeast 380 437 15,700 1,320 Climbing Boston Center
11:32PM 41.3167 -73.4183 26° Northeast 380 437 17,200 1,500 Climbing Boston Center
11:33PM 41.4108 -73.3589 25° Northeast 380 437 18,800 1,380 Climbing Boston Center
11:34PM 41.5047 -73.3436 North 380 437 20,000 1,320 Climbing Boston Center
11:35PM 41.6047 -73.3481 358° North 361 415 21,500 1,500 Climbing Boston Center
11:36PM 41.7047 -73.3467 North 361 415 23,000 1,500 Climbing Boston Center
11:37PM 41.8069 -73.3481 359° North 361 415 24,500 1,500 Climbing Boston Center
11:38PM 41.9092 -73.3494 359° North 361 415 26,000 1,200 Climbing Boston Center
11:39PM 42.0111 -73.3481 North 361 415 27,000 480 Climbing Boston Center
11:40PM 42.1089 -73.3972 340° North 367 422 27,000  Level Boston Center
11:41PM 42.2083 -73.4631 334° Northwest 385 443 27,000  Level Boston Center
11:42PM 42.3119 -73.5239 337° Northwest 391 450 27,000  Level Boston Center
11:43PM 42.4111 -73.6072 328° Northwest 412 474 27,000  Level Boston Center
11:44PM 42.5167 -73.6794 333° Northwest 412 474 27,000  Level Boston Center
11:45PM 42.6158 -73.7519 332° Northwest 412 474 27,000  Level Boston Center
11:46PM 42.7233 -73.8222 334° Northwest 412 474 27,000  Level Boston Center
11:47PM 42.8331 -73.8925 335° Northwest 412 474 27,000  Level Boston Center
11:48PM 42.9361 -73.9658 332° Northwest 417 480 27,000  Level Boston Center
11:49PM 43.0436 -74.0367 334° Northwest 423 487 27,000  Level Boston Center
11:50PM 43.1489 -74.1106 333° Northwest 423 487 27,000  Level Boston Center
11:51PM 43.2519 -74.1847 332° Northwest 423 487 27,000  Level Boston Center
11:52PM 43.3592 -74.2592 333° Northwest 428 493 27,000  Level Boston Center
11:53PM 43.4786 -74.3400 334° Northwest 434 499 27,000  Level Boston Center
11:54PM 43.5839 -74.4119 334° Northwest 429 494 27,000  Level Boston Center
11:55PM 43.6889 -74.4872 333° Northwest 429 494 27,000  Level Boston Center
11:56PM 43.7978 -74.5631 333° Northwest 429 494 27,000  Level Boston Center
11:57PM 43.9006 -74.6386 332° Northwest 429 494 27,000  Level Boston Center
11:58PM 44.0075 -74.7119 334° Northwest 429 494 27,000 -360 Level Boston Center
11:59PM 44.1144 -74.7853 334° Northwest 429 494 26,300 -1,680 Descending Boston Center
12:00AM 44.2192 -74.8619 332° Northwest 429 494 23,700 -2,460 Descending Boston Center
12:01AM 44.3197 -74.9356 332° Northwest 424 488 21,400 -2,340 Descending Boston Center
12:02AM 44.4183 -74.9950 337° Northwest 408 470 19,100 -2,040 Descending Boston Center
12:03AM 44.5172 -75.0489 339° North 387 445 17,400 -1,740 Descending Boston Center
12:04AM 44.6139 -75.1056 337° Northwest 382 440 15,700 -1,800 Descending Boston Center
12:05AM 44.6667 -75.1500 329° Northwest 370 426 14,400 -1,800 Descending Montreal Center
12:06AM 44.7500 -75.1833 344° North 360 414 12,700 -1,800 Descending Montreal Center
12:07AM 44.8500 -75.2333 340° North 360 414 10,900 -1,260 Descending Montreal Center
12:08AM 44.9333 -75.3000 330° Northwest 340 391 10,200 -1,260 Descending Montreal Center
12:09AM 45.0167 -75.3333 344° North 260 299 8,400 -1,920 Descending Montreal Center
12:10AM 45.0667 -75.3833 325° Northwest 250 288 6,400 -1,800 Descending Montreal Center
12:11AM 45.1333 -75.4000 350° North 240 276 4,900 -1,200 Descending Montreal Center
12:12AM 45.1833 -75.4500 325° Northwest 200 230 4,000 -1,080 Descending Montreal Center
12:13AM 45.2167 -75.5167 305° West 200 230 2,800 -1,140 Descending Montreal Center
12:14AM 45.2500 -75.5667 313° West 180 207 1,800 -1,020 Descending Montreal Center